Detall de PIREP

Printer-friendly versionPDF version

[2015/11/10 08:35:00]
Flight IATA:CT2110
Pilot Number:041
Company ICAO:CAT
Aircraft Type:BE20/A
PAX:4
Departing Airport: LEVC
Destination Airport: LEST
Alternate Airport:LEMD
Online: VATSIM
Route:CENTA A33 FORNO
Flight Level:FL130
No Slew and time accel
No pause
Crash detect
Detect pilot in Cockpit between each 30 and 45 minutes
08:35 Zero fuel Weight: 8737 Lbs, Fuel Weight: 3677 Lbs
08:35 VATSIM:LEVC 100800Z 00000KT CAVOK 11/10 Q1030 NOSIG
08:35 VATSIM:LEST 100800Z 00000KT 0400 R17/0250N R35/1200D BCFG FEW004 10/09 Q1030 NOSIG
08:35 VOICE CATALONIAN
08:41 Parking Brakes off
08:45 Take-off
08:45 Take off Weight: 12385 Lbs
08:45 Wind: 310º @ 002 Knots Heading: 294º
08:45 POS N39º 29´ 22´´ W000º 28´ 57´´
08:45 Flaps:1 at 136 Knots
08:45 Gear Up: 137 Knots
08:45 Flaps:0 at 141 Knots
08:58 TOC
08:58 Fuel Weight: 3475 Lb
09:00 Wind:285º@012 Knots Heading: 298º Ground Speed: 232 Knots Altitude 13510 ft
09:15 Wind:274º@014 Knots Heading: 297º Ground Speed: 238 Knots Altitude 13536 ft
09:30 Wind:270º@015 Knots Heading: 294º Ground Speed: 231 Knots Altitude 13543 ft
09:45 Wind:267º@030 Knots Heading: 292º Ground Speed: 222 Knots Altitude 13549 ft
10:00 Wind:272º@029 Knots Heading: 301º Ground Speed: 226 Knots Altitude 13556 ft
10:01 TOD
10:01 Fuel Weight: 2735 Lb
10:15 Wind:262º@018 Knots Heading: 301º Ground Speed: 222 Knots Altitude 9547 ft
10:30 Wind:246º@023 Knots Heading: 296º Ground Speed: 204 Knots Altitude 5498 ft
10:41 Flaps:1 at 174 Knots
10:44 Gear Down: 151 Knots
10:45 Wind:170º@003 Knots Heading: 167º Ground Speed: 142 Knots Altitude 3697 ft
10:45 Flaps:2 at 136 Knots
10:48 TouchDown:Rate -194 ft/min Speed: 105 Knots
10:49 Flaps:0 at 41 Knots
10:49 VATSIM:LEST 101030Z 00000KT 9999 VCFG NSC 15/13 Q1030 BECMG NSW
10:49 Land
10:49 Wind:176º@002 Knots
10:49 Heading: 177º
10:49 Flight Duration: 02:04
10:49 Landing Weight: 11024 Lbs
10:49 POS N42º 53´ 46´´ W008º 24´ 54´´
10:51 Parking brakes on
10:51 Block to Block Duration: 02:10
10:51 Final Fuel: 2281 Lbls
10:51 Spent Fuel: 1395 Lbls
10:51 Flight Length: 444 NM
10:51 TOD Land Length: 162 NM

Exportar CSV

Powered by Drupal - Modified by Danger4k